sensor_id;sensor_type;location;lat;lon;timestamp;temperature;humidity
13521;DHT22;6832;51.186;3.236;2023-07-13T00:01:04;27.50;46.10
13521;DHT22;6832;51.186;3.236;2023-07-13T00:03:32;27.50;46.10
13521;DHT22;6832;51.186;3.236;2023-07-13T00:06:02;27.50;46.10
13521;DHT22;6832;51.186;3.236;2023-07-13T00:08:30;27.50;46.20
13521;DHT22;6832;51.186;3.236;2023-07-13T00:10:58;27.50;46.20
13521;DHT22;6832;51.186;3.236;2023-07-13T00:13:25;27.50;46.20
13521;DHT22;6832;51.186;3.236;2023-07-13T00:15:52;27.50;46.30
13521;DHT22;6832;51.186;3.236;2023-07-13T00:18:19;27.40;46.20
13521;DHT22;6832;51.186;3.236;2023-07-13T00:20:46;27.50;46.30
13521;DHT22;6832;51.186;3.236;2023-07-13T00:23:14;27.40;46.30
13521;DHT22;6832;51.186;3.236;2023-07-13T00:25:42;27.40;46.30
13521;DHT22;6832;51.186;3.236;2023-07-13T00:28:09;27.40;46.30
13521;DHT22;6832;51.186;3.236;2023-07-13T00:30:36;27.40;46.30
13521;DHT22;6832;51.186;3.236;2023-07-13T00:33:03;27.40;46.30
13521;DHT22;6832;51.186;3.236;2023-07-13T00:35:30;27.40;46.30
13521;DHT22;6832;51.186;3.236;2023-07-13T00:37:57;27.40;46.30
13521;DHT22;6832;51.186;3.236;2023-07-13T00:40:26;27.30;46.40
13521;DHT22;6832;51.186;3.236;2023-07-13T00:42:52;27.30;46.40
13521;DHT22;6832;51.186;3.236;2023-07-13T00:48:27;27.40;46.60
13521;DHT22;6832;51.186;3.236;2023-07-13T00:50:58;27.30;46.40
13521;DHT22;6832;51.186;3.236;2023-07-13T00:53:27;27.30;46.40
13521;DHT22;6832;51.186;3.236;2023-07-13T00:55:57;27.30;46.50
13521;DHT22;6832;51.186;3.236;2023-07-13T00:58:25;27.30;46.60
13521;DHT22;6832;51.186;3.236;2023-07-13T01:00:53;27.30;46.60
13521;DHT22;6832;51.186;3.236;2023-07-13T01:03:20;27.30;46.60
13521;DHT22;6832;51.186;3.236;2023-07-13T01:05:48;27.30;46.60
13521;DHT22;6832;51.186;3.236;2023-07-13T01:08:16;27.20;46.50
13521;DHT22;6832;51.186;3.236;2023-07-13T01:10:51;27.20;46.50
13521;DHT22;6832;51.186;3.236;2023-07-13T01:13:19;27.20;46.60
13521;DHT22;6832;51.186;3.236;2023-07-13T01:15:48;27.20;46.60
13521;DHT22;6832;51.186;3.236;2023-07-13T01:18:18;27.30;46.70
13521;DHT22;6832;51.186;3.236;2023-07-13T01:20:53;27.20;46.60
13521;DHT22;6832;51.186;3.236;2023-07-13T01:23:21;27.20;46.70
13521;DHT22;6832;51.186;3.236;2023-07-13T01:25:48;27.20;46.70
13521;DHT22;6832;51.186;3.236;2023-07-13T01:28:15;27.20;46.70
13521;DHT22;6832;51.186;3.236;2023-07-13T01:30:43;27.20;46.70
13521;DHT22;6832;51.186;3.236;2023-07-13T01:33:12;27.20;46.80
13521;DHT22;6832;51.186;3.236;2023-07-13T01:35:39;27.20;46.80
13521;DHT22;6832;51.186;3.236;2023-07-13T01:38:08;27.10;46.70
13521;DHT22;6832;51.186;3.236;2023-07-13T01:40:37;27.10;46.80
13521;DHT22;6832;51.186;3.236;2023-07-13T01:43:04;27.10;46.80
13521;DHT22;6832;51.186;3.236;2023-07-13T01:45:32;27.10;46.80
13521;DHT22;6832;51.186;3.236;2023-07-13T01:47:59;27.10;46.90
13521;DHT22;6832;51.186;3.236;2023-07-13T01:50:26;27.10;46.90
13521;DHT22;6832;51.186;3.236;2023-07-13T01:52:53;27.10;46.90
13521;DHT22;6832;51.186;3.236;2023-07-13T01:55:22;27.10;46.90
13521;DHT22;6832;51.186;3.236;2023-07-13T01:57:49;27.10;47.00
13521;DHT22;6832;51.186;3.236;2023-07-13T02:00:17;27.10;47.00
13521;DHT22;6832;51.186;3.236;2023-07-13T02:02:44;27.00;46.90
13521;DHT22;6832;51.186;3.236;2023-07-13T02:05:12;27.00;47.00
13521;DHT22;6832;51.186;3.236;2023-07-13T02:07:39;27.10;47.10
13521;DHT22;6832;51.186;3.236;2023-07-13T02:10:08;27.00;47.10
13521;DHT22;6832;51.186;3.236;2023-07-13T02:12:36;27.00;47.10
13521;DHT22;6832;51.186;3.236;2023-07-13T02:15:04;27.00;47.70
13521;DHT22;6832;51.186;3.236;2023-07-13T02:17:31;27.00;47.10
13521;DHT22;6832;51.186;3.236;2023-07-13T02:19:58;27.00;47.10
13521;DHT22;6832;51.186;3.236;2023-07-13T02:22:25;27.00;47.20
13521;DHT22;6832;51.186;3.236;2023-07-13T02:24:52;27.00;47.30
13521;DHT22;6832;51.186;3.236;2023-07-13T02:27:19;27.00;47.30
13521;DHT22;6832;51.186;3.236;2023-07-13T02:29:47;27.00;47.30
13521;DHT22;6832;51.186;3.236;2023-07-13T02:32:16;27.00;47.30
13521;DHT22;6832;51.186;3.236;2023-07-13T02:34:44;26.90;47.30
13521;DHT22;6832;51.186;3.236;2023-07-13T02:37:11;26.90;47.30
13521;DHT22;6832;51.186;3.236;2023-07-13T02:39:38;26.90;47.30
13521;DHT22;6832;51.186;3.236;2023-07-13T02:42:06;26.90;47.30
13521;DHT22;6832;51.186;3.236;2023-07-13T02:44:33;26.90;47.30
13521;DHT22;6832;51.186;3.236;2023-07-13T02:47:01;27.00;47.30
13521;DHT22;6832;51.186;3.236;2023-07-13T02:49:28;26.90;47.90
13521;DHT22;6832;51.186;3.236;2023-07-13T02:51:55;26.90;47.30
13521;DHT22;6832;51.186;3.236;2023-07-13T02:54:22;26.90;47.30
13521;DHT22;6832;51.186;3.236;2023-07-13T02:56:49;26.90;47.60
13521;DHT22;6832;51.186;3.236;2023-07-13T02:59:16;26.90;47.30
13521;DHT22;6832;51.186;3.236;2023-07-13T03:01:42;26.90;47.40
13521;DHT22;6832;51.186;3.236;2023-07-13T03:04:11;26.90;47.30
13521;DHT22;6832;51.186;3.236;2023-07-13T03:06:38;26.80;47.40
13521;DHT22;6832;51.186;3.236;2023-07-13T03:09:05;26.90;47.50
13521;DHT22;6832;51.186;3.236;2023-07-13T03:11:32;26.80;47.50
13521;DHT22;6832;51.186;3.236;2023-07-13T03:13:59;26.80;47.50
13521;DHT22;6832;51.186;3.236;2023-07-13T03:16:25;26.80;47.50
13521;DHT22;6832;51.186;3.236;2023-07-13T03:18:52;26.80;47.60
13521;DHT22;6832;51.186;3.236;2023-07-13T03:21:21;26.80;48.20
13521;DHT22;6832;51.186;3.236;2023-07-13T03:23:47;26.80;47.60
13521;DHT22;6832;51.186;3.236;2023-07-13T03:26:16;26.80;47.70
13521;DHT22;6832;51.186;3.236;2023-07-13T03:28:44;26.80;47.70
13521;DHT22;6832;51.186;3.236;2023-07-13T03:31:14;26.80;47.70
13521;DHT22;6832;51.186;3.236;2023-07-13T03:33:41;26.80;47.80
13521;DHT22;6832;51.186;3.236;2023-07-13T03:36:14;26.80;47.80
13521;DHT22;6832;51.186;3.236;2023-07-13T03:38:46;26.80;47.90
13521;DHT22;6832;51.186;3.236;2023-07-13T03:41:14;26.80;47.90
13521;DHT22;6832;51.186;3.236;2023-07-13T03:43:41;26.80;47.90
13521;DHT22;6832;51.186;3.236;2023-07-13T03:46:08;26.70;47.90
13521;DHT22;6832;51.186;3.236;2023-07-13T03:48:35;26.70;47.80
13521;DHT22;6832;51.186;3.236;2023-07-13T03:51:02;26.70;47.80
13521;DHT22;6832;51.186;3.236;2023-07-13T03:53:29;26.70;47.80
13521;DHT22;6832;51.186;3.236;2023-07-13T03:55:57;26.70;47.90
13521;DHT22;6832;51.186;3.236;2023-07-13T03:58:30;26.70;47.90
13521;DHT22;6832;51.186;3.236;2023-07-13T04:00:57;26.80;48.00
13521;DHT22;6832;51.186;3.236;2023-07-13T04:03:25;26.60;47.90
13521;DHT22;6832;51.186;3.236;2023-07-13T04:05:55;26.70;47.90
13521;DHT22;6832;51.186;3.236;2023-07-13T04:08:26;26.60;47.90
13521;DHT22;6832;51.186;3.236;2023-07-13T04:10:53;26.70;48.00
13521;DHT22;6832;51.186;3.236;2023-07-13T04:13:21;26.60;47.90
13521;DHT22;6832;51.186;3.236;2023-07-13T04:15:48;26.60;48.00
13521;DHT22;6832;51.186;3.236;2023-07-13T04:18:15;26.60;48.00
13521;DHT22;6832;51.186;3.236;2023-07-13T04:20:42;26.60;48.00
13521;DHT22;6832;51.186;3.236;2023-07-13T04:23:09;26.60;48.00
13521;DHT22;6832;51.186;3.236;2023-07-13T04:25:35;26.60;48.00
13521;DHT22;6832;51.186;3.236;2023-07-13T04:28:03;26.60;48.00
13521;DHT22;6832;51.186;3.236;2023-07-13T04:30:32;26.60;48.00
13521;DHT22;6832;51.186;3.236;2023-07-13T04:32:59;26.60;48.10
13521;DHT22;6832;51.186;3.236;2023-07-13T04:35:25;26.60;48.80
13521;DHT22;6832;51.186;3.236;2023-07-13T04:37:52;26.60;48.20
13521;DHT22;6832;51.186;3.236;2023-07-13T04:40:20;26.60;48.20
13521;DHT22;6832;51.186;3.236;2023-07-13T04:42:47;26.60;48.20
13521;DHT22;6832;51.186;3.236;2023-07-13T04:45:14;26.60;48.20
13521;DHT22;6832;51.186;3.236;2023-07-13T04:47:44;26.60;48.20
13521;DHT22;6832;51.186;3.236;2023-07-13T04:50:13;26.50;49.00
13521;DHT22;6832;51.186;3.236;2023-07-13T04:52:41;26.50;48.80
13521;DHT22;6832;51.186;3.236;2023-07-13T04:55:08;26.50;48.60
13521;DHT22;6832;51.186;3.236;2023-07-13T04:57:35;26.50;48.50
13521;DHT22;6832;51.186;3.236;2023-07-13T05:00:02;26.50;48.50
13521;DHT22;6832;51.186;3.236;2023-07-13T05:02:32;26.60;48.40
13521;DHT22;6832;51.186;3.236;2023-07-13T05:05:01;26.60;48.40
13521;DHT22;6832;51.186;3.236;2023-07-13T05:07:29;26.60;48.50
13521;DHT22;6832;51.186;3.236;2023-07-13T05:09:58;26.60;48.50
13521;DHT22;6832;51.186;3.236;2023-07-13T05:12:25;26.60;48.60
13521;DHT22;6832;51.186;3.236;2023-07-13T05:14:52;26.60;48.60
13521;DHT22;6832;51.186;3.236;2023-07-13T05:17:19;26.60;48.40
13521;DHT22;6832;51.186;3.236;2023-07-13T05:19:45;26.60;48.40
13521;DHT22;6832;51.186;3.236;2023-07-13T05:22:14;26.60;48.40
13521;DHT22;6832;51.186;3.236;2023-07-13T05:24:41;26.60;48.40
13521;DHT22;6832;51.186;3.236;2023-07-13T05:27:08;26.60;48.40
13521;DHT22;6832;51.186;3.236;2023-07-13T05:29:34;26.60;48.40
13521;DHT22;6832;51.186;3.236;2023-07-13T05:32:01;26.60;48.40
13521;DHT22;6832;51.186;3.236;2023-07-13T05:34:29;26.60;48.40
13521;DHT22;6832;51.186;3.236;2023-07-13T05:36:55;26.60;48.50
13521;DHT22;6832;51.186;3.236;2023-07-13T05:39:24;26.60;48.40
13521;DHT22;6832;51.186;3.236;2023-07-13T05:41:51;26.60;48.50
13521;DHT22;6832;51.186;3.236;2023-07-13T05:44:18;26.60;48.50
13521;DHT22;6832;51.186;3.236;2023-07-13T05:46:45;26.60;48.60
13521;DHT22;6832;51.186;3.236;2023-07-13T05:49:12;26.60;48.60
13521;DHT22;6832;51.186;3.236;2023-07-13T05:51:39;26.60;48.60
13521;DHT22;6832;51.186;3.236;2023-07-13T05:54:06;26.60;48.60
13521;DHT22;6832;51.186;3.236;2023-07-13T05:56:34;26.60;48.70
13521;DHT22;6832;51.186;3.236;2023-07-13T05:59:01;26.70;48.70
13521;DHT22;6832;51.186;3.236;2023-07-13T06:01:30;26.60;48.70
13521;DHT22;6832;51.186;3.236;2023-07-13T06:03:57;26.70;48.90
13521;DHT22;6832;51.186;3.236;2023-07-13T06:06:24;26.70;48.90
13521;DHT22;6832;51.186;3.236;2023-07-13T06:08:51;26.70;48.90
13521;DHT22;6832;51.186;3.236;2023-07-13T06:11:19;26.70;48.90
13521;DHT22;6832;51.186;3.236;2023-07-13T06:13:48;26.80;49.00
13521;DHT22;6832;51.186;3.236;2023-07-13T06:16:16;26.80;49.10
13521;DHT22;6832;51.186;3.236;2023-07-13T06:18:43;26.80;49.10
13521;DHT22;6832;51.186;3.236;2023-07-13T06:21:12;26.80;49.10
13521;DHT22;6832;51.186;3.236;2023-07-13T06:23:40;26.80;49.10
13521;DHT22;6832;51.186;3.236;2023-07-13T06:26:07;26.90;49.20
13521;DHT22;6832;51.186;3.236;2023-07-13T06:28:35;26.80;49.20
13521;DHT22;6832;51.186;3.236;2023-07-13T06:31:05;26.90;49.30
13521;DHT22;6832;51.186;3.236;2023-07-13T06:33:32;26.90;49.30
13521;DHT22;6832;51.186;3.236;2023-07-13T06:35:59;26.90;49.30
13521;DHT22;6832;51.186;3.236;2023-07-13T06:38:26;26.90;49.30
13521;DHT22;6832;51.186;3.236;2023-07-13T06:40:52;27.00;49.30
13521;DHT22;6832;51.186;3.236;2023-07-13T06:43:19;27.00;49.30
13521;DHT22;6832;51.186;3.236;2023-07-13T06:45:48;27.00;49.30
13521;DHT22;6832;51.186;3.236;2023-07-13T06:48:18;27.00;49.30
13521;DHT22;6832;51.186;3.236;2023-07-13T06:50:45;27.00;49.40
13521;DHT22;6832;51.186;3.236;2023-07-13T06:53:13;27.10;49.40
13521;DHT22;6832;51.186;3.236;2023-07-13T06:55:40;27.10;49.40
13521;DHT22;6832;51.186;3.236;2023-07-13T06:58:07;27.10;49.40
13521;DHT22;6832;51.186;3.236;2023-07-13T07:00:33;27.10;49.50
13521;DHT22;6832;51.186;3.236;2023-07-13T07:03:00;27.10;49.50
13521;DHT22;6832;51.186;3.236;2023-07-13T07:05:29;27.20;49.50
13521;DHT22;6832;51.186;3.236;2023-07-13T07:07:55;27.20;49.50
13521;DHT22;6832;51.186;3.236;2023-07-13T07:10:23;27.20;49.40
13521;DHT22;6832;51.186;3.236;2023-07-13T07:12:49;27.20;49.40
13521;DHT22;6832;51.186;3.236;2023-07-13T07:15:17;27.20;49.40
13521;DHT22;6832;51.186;3.236;2023-07-13T07:17:44;27.30;49.50
13521;DHT22;6832;51.186;3.236;2023-07-13T07:20:12;27.30;49.40
13521;DHT22;6832;51.186;3.236;2023-07-13T07:22:40;27.30;49.50
13521;DHT22;6832;51.186;3.236;2023-07-13T07:25:07;27.30;49.40
13521;DHT22;6832;51.186;3.236;2023-07-13T07:27:34;27.30;49.30
13521;DHT22;6832;51.186;3.236;2023-07-13T07:30:01;27.30;49.30
13521;DHT22;6832;51.186;3.236;2023-07-13T07:32:29;27.40;49.40
13521;DHT22;6832;51.186;3.236;2023-07-13T07:34:57;27.40;49.30
13521;DHT22;6832;51.186;3.236;2023-07-13T07:37:24;27.40;49.30
13521;DHT22;6832;51.186;3.236;2023-07-13T07:39:52;27.40;49.30
13521;DHT22;6832;51.186;3.236;2023-07-13T07:42:19;27.40;49.40
13521;DHT22;6832;51.186;3.236;2023-07-13T07:44:46;27.50;49.40
13521;DHT22;6832;51.186;3.236;2023-07-13T07:47:13;27.40;49.30
13521;DHT22;6832;51.186;3.236;2023-07-13T07:49:40;27.50;49.40
13521;DHT22;6832;51.186;3.236;2023-07-13T07:52:08;27.50;49.40
13521;DHT22;6832;51.186;3.236;2023-07-13T07:54:34;27.50;49.40
13521;DHT22;6832;51.186;3.236;2023-07-13T07:57:03;27.60;50.10
13521;DHT22;6832;51.186;3.236;2023-07-13T07:59:30;27.60;49.50
13521;DHT22;6832;51.186;3.236;2023-07-13T08:01:57;27.60;49.40
13521;DHT22;6832;51.186;3.236;2023-07-13T08:04:23;27.60;49.40
13521;DHT22;6832;51.186;3.236;2023-07-13T08:06:50;27.70;49.50
13521;DHT22;6832;51.186;3.236;2023-07-13T08:09:17;27.70;49.50
13521;DHT22;6832;51.186;3.236;2023-07-13T08:11:44;27.70;49.50
13521;DHT22;6832;51.186;3.236;2023-07-13T08:14:12;27.70;49.50
13521;DHT22;6832;51.186;3.236;2023-07-13T08:16:39;27.70;49.40
13521;DHT22;6832;51.186;3.236;2023-07-13T08:19:06;27.80;49.50
13521;DHT22;6832;51.186;3.236;2023-07-13T08:21:33;27.80;49.50
13521;DHT22;6832;51.186;3.236;2023-07-13T08:24:00;27.70;49.50
13521;DHT22;6832;51.186;3.236;2023-07-13T08:26:26;27.80;49.50
13521;DHT22;6832;51.186;3.236;2023-07-13T08:28:53;27.80;49.40
13521;DHT22;6832;51.186;3.236;2023-07-13T08:31:22;27.80;49.40
13521;DHT22;6832;51.186;3.236;2023-07-13T08:33:48;27.80;49.40
13521;DHT22;6832;51.186;3.236;2023-07-13T08:36:15;27.80;49.40
13521;DHT22;6832;51.186;3.236;2023-07-13T08:38:42;27.90;49.40
13521;DHT22;6832;51.186;3.236;2023-07-13T08:41:15;27.90;49.50
13521;DHT22;6832;51.186;3.236;2023-07-13T08:43:46;27.90;49.50
13521;DHT22;6832;51.186;3.236;2023-07-13T08:46:19;27.90;50.10
13521;DHT22;6832;51.186;3.236;2023-07-13T08:48:51;27.90;49.50
13521;DHT22;6832;51.186;3.236;2023-07-13T08:51:27;27.90;50.20
13521;DHT22;6832;51.186;3.236;2023-07-13T08:53:58;27.90;49.60
13521;DHT22;6832;51.186;3.236;2023-07-13T08:56:28;28.00;49.70
13521;DHT22;6832;51.186;3.236;2023-07-13T08:58:57;28.00;49.70
13521;DHT22;6832;51.186;3.236;2023-07-13T09:01:30;28.00;49.60
13521;DHT22;6832;51.186;3.236;2023-07-13T09:04:04;28.00;49.70
13521;DHT22;6832;51.186;3.236;2023-07-13T09:09:24;28.00;49.50
13521;DHT22;6832;51.186;3.236;2023-07-13T09:12:04;28.00;49.50
13521;DHT22;6832;51.186;3.236;2023-07-13T09:14:41;28.10;49.60
13521;DHT22;6832;51.186;3.236;2023-07-13T09:17:15;28.10;49.60
13521;DHT22;6832;51.186;3.236;2023-07-13T09:19:47;28.10;49.50
13521;DHT22;6832;51.186;3.236;2023-07-13T09:22:19;28.20;49.60
13521;DHT22;6832;51.186;3.236;2023-07-13T09:24:55;28.20;49.40
13521;DHT22;6832;51.186;3.236;2023-07-13T09:27:29;28.20;49.40
13521;DHT22;6832;51.186;3.236;2023-07-13T09:30:02;28.20;49.50
13521;DHT22;6832;51.186;3.236;2023-07-13T09:32:31;28.10;49.30
13521;DHT22;6832;51.186;3.236;2023-07-13T09:35:00;28.20;49.40
13521;DHT22;6832;51.186;3.236;2023-07-13T09:37:31;28.10;49.40
13521;DHT22;6832;51.186;3.236;2023-07-13T09:39:59;28.10;49.40
13521;DHT22;6832;51.186;3.236;2023-07-13T09:42:30;28.20;49.50
13521;DHT22;6832;51.186;3.236;2023-07-13T09:44:59;28.10;49.40
13521;DHT22;6832;51.186;3.236;2023-07-13T09:47:29;28.20;49.50
13521;DHT22;6832;51.186;3.236;2023-07-13T09:49:58;28.20;49.50
13521;DHT22;6832;51.186;3.236;2023-07-13T09:52:28;28.10;49.50
13521;DHT22;6832;51.186;3.236;2023-07-13T09:55:23;28.10;49.60
13521;DHT22;6832;51.186;3.236;2023-07-13T09:57:51;28.20;49.60
13521;DHT22;6832;51.186;3.236;2023-07-13T10:00:23;28.10;49.60
13521;DHT22;6832;51.186;3.236;2023-07-13T10:03:02;28.20;49.60
13521;DHT22;6832;51.186;3.236;2023-07-13T10:05:38;28.20;49.60
13521;DHT22;6832;51.186;3.236;2023-07-13T10:08:16;28.20;49.60
13521;DHT22;6832;51.186;3.236;2023-07-13T10:10:44;28.20;49.60
13521;DHT22;6832;51.186;3.236;2023-07-13T10:13:29;28.30;49.70
13521;DHT22;6832;51.186;3.236;2023-07-13T10:15:57;28.20;49.60
13521;DHT22;6832;51.186;3.236;2023-07-13T10:18:25;28.30;49.60
13521;DHT22;6832;51.186;3.236;2023-07-13T10:20:58;28.30;49.60
13521;DHT22;6832;51.186;3.236;2023-07-13T10:23:31;28.20;49.60
13521;DHT22;6832;51.186;3.236;2023-07-13T10:25:59;28.30;49.60
13521;DHT22;6832;51.186;3.236;2023-07-13T10:28:30;28.30;49.70
13521;DHT22;6832;51.186;3.236;2023-07-13T10:30:59;28.30;49.70
13521;DHT22;6832;51.186;3.236;2023-07-13T10:33:28;28.30;49.70
13521;DHT22;6832;51.186;3.236;2023-07-13T10:36:10;28.30;49.70
13521;DHT22;6832;51.186;3.236;2023-07-13T10:38:40;28.30;50.50
13521;DHT22;6832;51.186;3.236;2023-07-13T10:41:11;28.30;50.00
13521;DHT22;6832;51.186;3.236;2023-07-13T10:43:43;28.40;50.10
13521;DHT22;6832;51.186;3.236;2023-07-13T10:46:13;28.40;50.10
13521;DHT22;6832;51.186;3.236;2023-07-13T10:48:43;28.50;50.20
13521;DHT22;6832;51.186;3.236;2023-07-13T10:51:13;28.60;50.30
13521;DHT22;6832;51.186;3.236;2023-07-13T10:53:42;28.60;50.20
13521;DHT22;6832;51.186;3.236;2023-07-13T10:56:29;28.80;50.30
13521;DHT22;6832;51.186;3.236;2023-07-13T10:59:10;28.80;50.30
13521;DHT22;6832;51.186;3.236;2023-07-13T11:01:50;28.90;50.40
13521;DHT22;6832;51.186;3.236;2023-07-13T11:04:19;29.00;50.30
13521;DHT22;6832;51.186;3.236;2023-07-13T11:06:48;29.10;50.30
13521;DHT22;6832;51.186;3.236;2023-07-13T11:09:36;29.20;50.50
13521;DHT22;6832;51.186;3.236;2023-07-13T11:12:09;29.20;50.80
13521;DHT22;6832;51.186;3.236;2023-07-13T11:14:43;29.30;50.90
13521;DHT22;6832;51.186;3.236;2023-07-13T11:17:37;29.50;51.00
13521;DHT22;6832;51.186;3.236;2023-07-13T11:20:19;29.60;50.80
13521;DHT22;6832;51.186;3.236;2023-07-13T11:22:49;29.80;50.60
13521;DHT22;6832;51.186;3.236;2023-07-13T11:25:28;30.00;50.50
13521;DHT22;6832;51.186;3.236;2023-07-13T11:28:16;30.10;50.40
13521;DHT22;6832;51.186;3.236;2023-07-13T11:30:47;30.20;50.30
13521;DHT22;6832;51.186;3.236;2023-07-13T11:33:17;30.30;50.20
13521;DHT22;6832;51.186;3.236;2023-07-13T11:35:51;30.40;50.10
13521;DHT22;6832;51.186;3.236;2023-07-13T11:38:20;30.50;50.00
13521;DHT22;6832;51.186;3.236;2023-07-13T11:40:52;30.60;49.90
13521;DHT22;6832;51.186;3.236;2023-07-13T11:43:22;30.70;49.70
13521;DHT22;6832;51.186;3.236;2023-07-13T11:45:50;30.70;49.60
13521;DHT22;6832;51.186;3.236;2023-07-13T11:48:22;30.80;49.70
13521;DHT22;6832;51.186;3.236;2023-07-13T11:50:51;30.90;49.70
13521;DHT22;6832;51.186;3.236;2023-07-13T11:53:20;30.90;49.60
13521;DHT22;6832;51.186;3.236;2023-07-13T11:55:49;31.00;49.60
13521;DHT22;6832;51.186;3.236;2023-07-13T11:58:20;31.00;49.50
13521;DHT22;6832;51.186;3.236;2023-07-13T12:00:49;31.10;49.70
13521;DHT22;6832;51.186;3.236;2023-07-13T12:03:20;31.20;49.70
13521;DHT22;6832;51.186;3.236;2023-07-13T12:05:57;31.30;49.60
13521;DHT22;6832;51.186;3.236;2023-07-13T12:08:24;31.40;49.50
13521;DHT22;6832;51.186;3.236;2023-07-13T12:10:59;31.40;49.30
13521;DHT22;6832;51.186;3.236;2023-07-13T12:13:27;31.50;49.00
13521;DHT22;6832;51.186;3.236;2023-07-13T12:15:56;31.60;48.90
13521;DHT22;6832;51.186;3.236;2023-07-13T12:18:29;31.70;48.70
13521;DHT22;6832;51.186;3.236;2023-07-13T12:20:58;31.70;48.60
13521;DHT22;6832;51.186;3.236;2023-07-13T12:23:29;31.70;48.40
13521;DHT22;6832;51.186;3.236;2023-07-13T12:26:00;31.70;48.30
13521;DHT22;6832;51.186;3.236;2023-07-13T12:28:33;31.70;48.30
13521;DHT22;6832;51.186;3.236;2023-07-13T12:31:02;31.60;48.30
13521;DHT22;6832;51.186;3.236;2023-07-13T12:33:31;31.60;48.50
13521;DHT22;6832;51.186;3.236;2023-07-13T12:36:00;31.60;48.60
13521;DHT22;6832;51.186;3.236;2023-07-13T12:38:29;31.60;48.60
13521;DHT22;6832;51.186;3.236;2023-07-13T12:40:58;31.60;48.60
13521;DHT22;6832;51.186;3.236;2023-07-13T12:43:26;31.60;48.60
13521;DHT22;6832;51.186;3.236;2023-07-13T12:45:59;31.60;48.60
13521;DHT22;6832;51.186;3.236;2023-07-13T12:48:26;31.70;48.70
13521;DHT22;6832;51.186;3.236;2023-07-13T12:50:55;31.80;48.70
13521;DHT22;6832;51.186;3.236;2023-07-13T12:53:23;31.80;48.70
13521;DHT22;6832;51.186;3.236;2023-07-13T12:55:59;31.80;48.70
13521;DHT22;6832;51.186;3.236;2023-07-13T12:58:27;31.90;48.60
13521;DHT22;6832;51.186;3.236;2023-07-13T13:00:56;31.90;48.50
13521;DHT22;6832;51.186;3.236;2023-07-13T13:03:28;32.00;48.40
13521;DHT22;6832;51.186;3.236;2023-07-13T13:05:58;32.00;48.10
13521;DHT22;6832;51.186;3.236;2023-07-13T13:08:26;32.00;47.80
13521;DHT22;6832;51.186;3.236;2023-07-13T13:10:53;32.00;47.70
13521;DHT22;6832;51.186;3.236;2023-07-13T13:13:21;32.00;47.60
13521;DHT22;6832;51.186;3.236;2023-07-13T13:15:48;31.90;47.40
13521;DHT22;6832;51.186;3.236;2023-07-13T13:18:16;31.90;47.40
13521;DHT22;6832;51.186;3.236;2023-07-13T13:20:43;31.80;47.40
13521;DHT22;6832;51.186;3.236;2023-07-13T13:23:13;31.80;47.40
13521;DHT22;6832;51.186;3.236;2023-07-13T13:25:43;31.70;47.10
13521;DHT22;6832;51.186;3.236;2023-07-13T13:28:15;31.60;46.90
13521;DHT22;6832;51.186;3.236;2023-07-13T13:30:45;31.60;46.70
13521;DHT22;6832;51.186;3.236;2023-07-13T13:33:15;31.50;46.30
13521;DHT22;6832;51.186;3.236;2023-07-13T13:35:43;31.40;46.00
13521;DHT22;6832;51.186;3.236;2023-07-13T13:38:12;31.30;46.20
13521;DHT22;6832;51.186;3.236;2023-07-13T13:40:40;31.20;46.30
13521;DHT22;6832;51.186;3.236;2023-07-13T13:43:17;31.20;46.40
13521;DHT22;6832;51.186;3.236;2023-07-13T13:45:46;31.10;46.40
13521;DHT22;6832;51.186;3.236;2023-07-13T13:48:18;31.00;46.30
13521;DHT22;6832;51.186;3.236;2023-07-13T13:50:47;30.90;46.20
13521;DHT22;6832;51.186;3.236;2023-07-13T13:53:14;30.80;46.20
13521;DHT22;6832;51.186;3.236;2023-07-13T13:55:41;30.70;46.10
13521;DHT22;6832;51.186;3.236;2023-07-13T13:58:09;30.70;46.00
13521;DHT22;6832;51.186;3.236;2023-07-13T14:00:36;30.60;45.90
13521;DHT22;6832;51.186;3.236;2023-07-13T14:03:05;30.50;45.80
13521;DHT22;6832;51.186;3.236;2023-07-13T14:05:32;30.40;45.90
13521;DHT22;6832;51.186;3.236;2023-07-13T14:08:00;30.30;45.90
13521;DHT22;6832;51.186;3.236;2023-07-13T14:10:27;30.30;46.00
13521;DHT22;6832;51.186;3.236;2023-07-13T14:12:55;30.20;46.60
13521;DHT22;6832;51.186;3.236;2023-07-13T14:15:24;30.10;46.10
13521;DHT22;6832;51.186;3.236;2023-07-13T14:17:52;30.00;46.10
13521;DHT22;6832;51.186;3.236;2023-07-13T14:20:22;30.00;46.10
13521;DHT22;6832;51.186;3.236;2023-07-13T14:22:50;29.90;46.80
13521;DHT22;6832;51.186;3.236;2023-07-13T14:25:18;29.90;46.50
13521;DHT22;6832;51.186;3.236;2023-07-13T14:27:48;29.80;46.30
13521;DHT22;6832;51.186;3.236;2023-07-13T14:30:17;29.70;46.30
13521;DHT22;6832;51.186;3.236;2023-07-13T14:32:45;29.70;46.30
13521;DHT22;6832;51.186;3.236;2023-07-13T14:35:12;29.60;46.20
13521;DHT22;6832;51.186;3.236;2023-07-13T14:37:41;29.50;46.20
13521;DHT22;6832;51.186;3.236;2023-07-13T14:40:16;29.50;46.30
13521;DHT22;6832;51.186;3.236;2023-07-13T14:42:43;29.50;46.20
13521;DHT22;6832;51.186;3.236;2023-07-13T14:45:15;29.40;46.50
13521;DHT22;6832;51.186;3.236;2023-07-13T14:47:42;29.30;46.60
13521;DHT22;6832;51.186;3.236;2023-07-13T14:50:15;29.30;46.70
13521;DHT22;6832;51.186;3.236;2023-07-13T14:52:44;29.30;46.80
13521;DHT22;6832;51.186;3.236;2023-07-13T14:55:13;29.20;46.90
13521;DHT22;6832;51.186;3.236;2023-07-13T14:57:40;29.20;47.10
13521;DHT22;6832;51.186;3.236;2023-07-13T15:00:13;29.10;47.10
13521;DHT22;6832;51.186;3.236;2023-07-13T15:02:42;29.10;47.30
13521;DHT22;6832;51.186;3.236;2023-07-13T15:05:17;29.00;47.30
13521;DHT22;6832;51.186;3.236;2023-07-13T15:07:46;29.00;47.40
13521;DHT22;6832;51.186;3.236;2023-07-13T15:10:18;29.00;48.20
13521;DHT22;6832;51.186;3.236;2023-07-13T15:12:46;29.00;47.60
13521;DHT22;6832;51.186;3.236;2023-07-13T15:15:13;28.90;47.40
13521;DHT22;6832;51.186;3.236;2023-07-13T15:17:41;28.80;47.30
13521;DHT22;6832;51.186;3.236;2023-07-13T15:20:18;28.80;47.20
13521;DHT22;6832;51.186;3.236;2023-07-13T15:22:47;28.80;46.90
13521;DHT22;6832;51.186;3.236;2023-07-13T15:25:16;28.70;46.90
13521;DHT22;6832;51.186;3.236;2023-07-13T15:27:44;28.70;46.90
13521;DHT22;6832;51.186;3.236;2023-07-13T15:30:15;28.70;47.00
13521;DHT22;6832;51.186;3.236;2023-07-13T15:32:43;28.60;47.00
13521;DHT22;6832;51.186;3.236;2023-07-13T15:35:14;28.60;47.20
13521;DHT22;6832;51.186;3.236;2023-07-13T15:37:42;28.50;47.30
13521;DHT22;6832;51.186;3.236;2023-07-13T15:40:12;28.50;47.30
13521;DHT22;6832;51.186;3.236;2023-07-13T15:42:39;28.50;47.40
13521;DHT22;6832;51.186;3.236;2023-07-13T15:45:16;28.50;47.50
13521;DHT22;6832;51.186;3.236;2023-07-13T15:47:44;28.50;47.60
13521;DHT22;6832;51.186;3.236;2023-07-13T15:50:15;28.50;47.60
13521;DHT22;6832;51.186;3.236;2023-07-13T15:52:43;28.50;47.70
13521;DHT22;6832;51.186;3.236;2023-07-13T15:55:13;28.50;47.70
13521;DHT22;6832;51.186;3.236;2023-07-13T15:57:43;28.50;47.80
13521;DHT22;6832;51.186;3.236;2023-07-13T16:00:20;28.50;47.80
13521;DHT22;6832;51.186;3.236;2023-07-13T16:02:48;28.50;47.80